sensor_id;sensor_type;location;lat;lon;timestamp;pressure;altitude;pressure_sealevel;temperature;humidity
36380;BME280;22411;53.016;18.632;2023-04-19T00:01:06;101505.41;;;5.29;100.00
36380;BME280;22411;53.016;18.632;2023-04-19T00:03:32;101502.81;;;5.29;100.00
36380;BME280;22411;53.016;18.632;2023-04-19T00:05:59;101490.16;;;5.22;100.00
36380;BME280;22411;53.016;18.632;2023-04-19T00:08:26;101481.75;;;5.17;100.00
36380;BME280;22411;53.016;18.632;2023-04-19T00:10:52;101479.31;;;5.13;100.00
36380;BME280;22411;53.016;18.632;2023-04-19T00:13:18;101476.88;;;5.08;100.00
36380;BME280;22411;53.016;18.632;2023-04-19T00:15:44;101474.31;;;5.08;100.00
36380;BME280;22411;53.016;18.632;2023-04-19T00:18:11;101472.59;;;5.09;100.00
36380;BME280;22411;53.016;18.632;2023-04-19T00:20:37;101471.03;;;5.03;100.00
36380;BME280;22411;53.016;18.632;2023-04-19T00:23:04;101462.56;;;4.99;100.00
36380;BME280;22411;53.016;18.632;2023-04-19T00:25:30;101456.50;;;5.02;100.00
36380;BME280;22411;53.016;18.632;2023-04-19T00:27:56;101461.66;;;5.02;100.00
36380;BME280;22411;53.016;18.632;2023-04-19T00:30:22;101460.00;;;4.99;100.00
36380;BME280;22411;53.016;18.632;2023-04-19T00:32:48;101446.31;;;4.99;100.00
36380;BME280;22411;53.016;18.632;2023-04-19T00:35:14;101446.38;;;4.97;100.00
36380;BME280;22411;53.016;18.632;2023-04-19T00:37:41;101445.66;;;4.92;100.00
36380;BME280;22411;53.016;18.632;2023-04-19T00:40:07;101446.63;;;4.88;100.00
36380;BME280;22411;53.016;18.632;2023-04-19T00:42:33;101435.59;;;4.85;100.00
36380;BME280;22411;53.016;18.632;2023-04-19T00:45:00;101440.03;;;4.80;100.00
36380;BME280;22411;53.016;18.632;2023-04-19T00:47:26;101424.88;;;4.72;100.00
36380;BME280;22411;53.016;18.632;2023-04-19T00:49:52;101420.81;;;4.65;100.00
36380;BME280;22411;53.016;18.632;2023-04-19T00:52:19;101421.78;;;4.61;100.00
36380;BME280;22411;53.016;18.632;2023-04-19T00:54:47;101421.78;;;4.61;100.00
36380;BME280;22411;53.016;18.632;2023-04-19T00:57:17;101424.53;;;4.55;100.00
36380;BME280;22411;53.016;18.632;2023-04-19T00:59:43;101411.88;;;4.49;100.00
36380;BME280;22411;53.016;18.632;2023-04-19T01:02:09;101416.31;;;4.42;100.00
36380;BME280;22411;53.016;18.632;2023-04-19T01:04:35;101419.81;;;4.39;100.00
36380;BME280;22411;53.016;18.632;2023-04-19T01:07:01;101407.03;;;4.38;100.00
36380;BME280;22411;53.016;18.632;2023-04-19T01:09:27;101401.19;;;4.33;100.00
36380;BME280;22411;53.016;18.632;2023-04-19T01:11:54;101397.03;;;4.29;100.00
36380;BME280;22411;53.016;18.632;2023-04-19T01:14:20;101401.22;;;4.31;100.00
36380;BME280;22411;53.016;18.632;2023-04-19T01:16:46;101402.88;;;4.32;100.00
36380;BME280;22411;53.016;18.632;2023-04-19T01:19:12;101396.13;;;4.30;100.00
36380;BME280;22411;53.016;18.632;2023-04-19T01:21:38;101398.69;;;4.30;100.00
36380;BME280;22411;53.016;18.632;2023-04-19T01:24:05;101390.38;;;4.22;100.00
36380;BME280;22411;53.016;18.632;2023-04-19T01:26:31;101396.47;;;4.17;100.00
36380;BME280;22411;53.016;18.632;2023-04-19T01:28:57;101393.91;;;4.17;100.00
36380;BME280;22411;53.016;18.632;2023-04-19T01:31:23;101392.25;;;4.15;100.00
36380;BME280;22411;53.016;18.632;2023-04-19T01:33:49;101382.09;;;4.12;100.00
36380;BME280;22411;53.016;18.632;2023-04-19T01:36:15;101376.97;;;4.12;100.00
36380;BME280;22411;53.016;18.632;2023-04-19T01:38:42;101375.31;;;4.09;100.00
36380;BME280;22411;53.016;18.632;2023-04-19T01:41:08;101369.28;;;4.12;100.00
36380;BME280;22411;53.016;18.632;2023-04-19T01:43:35;101363.25;;;4.13;100.00
36380;BME280;22411;53.016;18.632;2023-04-19T01:46:01;101365.94;;;4.08;100.00
36380;BME280;22411;53.016;18.632;2023-04-19T01:48:28;101359.97;;;4.08;100.00
36380;BME280;22411;53.016;18.632;2023-04-19T01:50:54;101357.47;;;4.05;100.00
36380;BME280;22411;53.016;18.632;2023-04-19T01:53:20;101352.44;;;4.02;100.00
36380;BME280;22411;53.016;18.632;2023-04-19T01:55:46;101350.91;;;3.96;100.00
36380;BME280;22411;53.016;18.632;2023-04-19T01:58:12;101345.84;;;3.93;100.00
36380;BME280;22411;53.016;18.632;2023-04-19T02:00:38;101345.91;;;3.90;100.00
36380;BME280;22411;53.016;18.632;2023-04-19T02:03:04;101344.16;;;3.92;100.00
36380;BME280;22411;53.016;18.632;2023-04-19T02:05:30;101342.63;;;3.86;100.00
36380;BME280;22411;53.016;18.632;2023-04-19T02:07:56;101340.16;;;3.82;100.00
36380;BME280;22411;53.016;18.632;2023-04-19T02:10:23;101340.41;;;3.73;100.00
36380;BME280;22411;53.016;18.632;2023-04-19T02:12:49;101331.16;;;3.67;100.00
36380;BME280;22411;53.016;18.632;2023-04-19T02:15:15;101332.94;;;3.63;100.00
36380;BME280;22411;53.016;18.632;2023-04-19T02:17:42;101331.44;;;3.56;100.00
36380;BME280;22411;53.016;18.632;2023-04-19T02:20:08;101333.22;;;3.54;100.00
36380;BME280;22411;53.016;18.632;2023-04-19T02:22:35;101334.06;;;3.53;100.00
36380;BME280;22411;53.016;18.632;2023-04-19T02:25:02;101334.22;;;3.49;100.00
36380;BME280;22411;53.016;18.632;2023-04-19T02:27:29;101337.78;;;3.43;100.00
36380;BME280;22411;53.016;18.632;2023-04-19T02:29:56;101329.28;;;3.41;100.00
36380;BME280;22411;53.016;18.632;2023-04-19T02:32:22;101325.97;;;3.37;100.00
36380;BME280;22411;53.016;18.632;2023-04-19T02:34:49;101332.03;;;3.33;100.00
36380;BME280;22411;53.016;18.632;2023-04-19T02:37:15;101320.06;;;3.34;100.00
36380;BME280;22411;53.016;18.632;2023-04-19T02:39:42;101317.41;;;3.37;100.00
36380;BME280;22411;53.016;18.632;2023-04-19T02:42:08;101316.63;;;3.35;100.00
36380;BME280;22411;53.016;18.632;2023-04-19T02:44:35;101316.66;;;3.33;100.00
36380;BME280;22411;53.016;18.632;2023-04-19T02:47:00;101307.16;;;3.37;100.00
36380;BME280;22411;53.016;18.632;2023-04-19T02:49:27;101311.44;;;3.36;100.00
36380;BME280;22411;53.016;18.632;2023-04-19T02:51:57;101304.56;;;3.38;100.00
36380;BME280;22411;53.016;18.632;2023-04-19T02:54:23;101301.91;;;3.43;100.00
36380;BME280;22411;53.016;18.632;2023-04-19T02:56:49;101296.84;;;3.40;100.00
36380;BME280;22411;53.016;18.632;2023-04-19T02:59:15;101286.53;;;3.43;100.00
36380;BME280;22411;53.016;18.632;2023-04-19T03:01:41;101282.25;;;3.42;100.00
36380;BME280;22411;53.016;18.632;2023-04-19T03:04:07;101275.38;;;3.44;100.00
36380;BME280;22411;53.016;18.632;2023-04-19T03:06:33;101272.72;;;3.47;100.00
36380;BME280;22411;53.016;18.632;2023-04-19T03:09:00;101277.91;;;3.46;100.00
36380;BME280;22411;53.016;18.632;2023-04-19T03:11:27;101282.97;;;3.47;100.00
36380;BME280;22411;53.016;18.632;2023-04-19T03:13:53;101282.03;;;3.51;100.00
36380;BME280;22411;53.016;18.632;2023-04-19T03:16:19;101268.47;;;3.46;100.00
36380;BME280;22411;53.016;18.632;2023-04-19T03:18:45;101271.94;;;3.45;100.00
36380;BME280;22411;53.016;18.632;2023-04-19T03:21:11;101277.81;;;3.49;100.00
36380;BME280;22411;53.016;18.632;2023-04-19T03:23:37;101269.31;;;3.48;100.00
36380;BME280;22411;53.016;18.632;2023-04-19T03:26:04;101264.19;;;3.47;100.00
36380;BME280;22411;53.016;18.632;2023-04-19T03:28:31;101259.84;;;3.50;100.00
36380;BME280;22411;53.016;18.632;2023-04-19T03:30:57;101264.97;;;3.50;100.00
36380;BME280;22411;53.016;18.632;2023-04-19T03:33:23;101252.97;;;3.51;100.00
36380;BME280;22411;53.016;18.632;2023-04-19T03:35:50;101243.63;;;3.50;100.00
36380;BME280;22411;53.016;18.632;2023-04-19T03:38:17;101247.69;;;3.57;100.00
36380;BME280;22411;53.016;18.632;2023-04-19T03:40:43;101248.28;;;3.66;100.00
36380;BME280;22411;53.016;18.632;2023-04-19T03:43:09;101245.66;;;3.68;100.00
36380;BME280;22411;53.016;18.632;2023-04-19T03:45:36;101243.94;;;3.68;100.00
36380;BME280;22411;53.016;18.632;2023-04-19T03:48:03;101248.09;;;3.73;100.00
36380;BME280;22411;53.016;18.632;2023-04-19T03:50:29;101249.78;;;3.74;100.00
36380;BME280;22411;53.016;18.632;2023-04-19T03:52:55;101241.06;;;3.79;100.00
36380;BME280;22411;53.016;18.632;2023-04-19T03:55:22;101252.03;;;3.84;100.00
36380;BME280;22411;53.016;18.632;2023-04-19T03:57:48;101253.69;;;3.87;100.00
36380;BME280;22411;53.016;18.632;2023-04-19T04:00:14;101254.44;;;3.90;100.00
36380;BME280;22411;53.016;18.632;2023-04-19T04:02:41;101262.84;;;3.96;100.00
36380;BME280;22411;53.016;18.632;2023-04-19T04:05:07;101249.84;;;4.02;100.00
36380;BME280;22411;53.016;18.632;2023-04-19T04:07:34;101259.03;;;4.09;100.00
36380;BME280;22411;53.016;18.632;2023-04-19T04:10:00;101254.53;;;4.15;100.00
36380;BME280;22411;53.016;18.632;2023-04-19T04:12:26;101256.13;;;4.19;100.00
36380;BME280;22411;53.016;18.632;2023-04-19T04:14:52;101256.84;;;4.25;100.00
36380;BME280;22411;53.016;18.632;2023-04-19T04:17:19;101250.75;;;4.29;100.00
36380;BME280;22411;53.016;18.632;2023-04-19T04:19:45;101250.59;;;4.33;100.00
36380;BME280;22411;53.016;18.632;2023-04-19T04:22:12;101240.03;;;4.42;100.00
36380;BME280;22411;53.016;18.632;2023-04-19T04:24:39;101221.91;;;4.47;100.00
36380;BME280;22411;53.016;18.632;2023-04-19T04:27:06;101223.44;;;4.53;100.00
36380;BME280;22411;53.016;18.632;2023-04-19T04:29:35;101214.19;;;4.49;100.00
36380;BME280;22411;53.016;18.632;2023-04-19T04:32:03;101211.66;;;4.47;100.00
36380;BME280;22411;53.016;18.632;2023-04-19T04:34:28;101201.38;;;4.47;100.00
36380;BME280;22411;53.016;18.632;2023-04-19T04:36:55;101201.28;;;4.50;100.00
36380;BME280;22411;53.016;18.632;2023-04-19T04:39:22;101198.59;;;4.53;100.00
36380;BME280;22411;53.016;18.632;2023-04-19T04:41:48;101194.38;;;4.52;100.00
36380;BME280;22411;53.016;18.632;2023-04-19T04:44:16;101190.13;;;4.51;100.00
36380;BME280;22411;53.016;18.632;2023-04-19T04:46:42;101180.22;;;4.40;100.00
36380;BME280;22411;53.016;18.632;2023-04-19T04:49:08;101175.06;;;4.40;100.00
36380;BME280;22411;53.016;18.632;2023-04-19T04:51:34;101167.44;;;4.39;100.00
36380;BME280;22411;53.016;18.632;2023-04-19T04:54:00;101177.72;;;4.37;100.00
36380;BME280;22411;53.016;18.632;2023-04-19T04:56:26;101178.53;;;4.39;100.00
36380;BME280;22411;53.016;18.632;2023-04-19T04:58:52;101182.50;;;4.50;100.00
36380;BME280;22411;53.016;18.632;2023-04-19T05:01:18;101183.13;;;4.56;100.00
36380;BME280;22411;53.016;18.632;2023-04-19T05:03:45;101179.66;;;4.57;100.00
36380;BME280;22411;53.016;18.632;2023-04-19T05:06:12;101173.53;;;4.61;100.00
36380;BME280;22411;53.016;18.632;2023-04-19T05:08:37;101157.19;;;4.64;100.00
36380;BME280;22411;53.016;18.632;2023-04-19T05:11:03;101135.88;;;4.62;100.00
36380;BME280;22411;53.016;18.632;2023-04-19T05:13:32;101135.97;;;4.59;100.00
36380;BME280;22411;53.016;18.632;2023-04-19T05:15:59;101137.94;;;4.51;100.00
36380;BME280;22411;53.016;18.632;2023-04-19T05:18:24;101152.25;;;4.58;100.00
36380;BME280;22411;53.016;18.632;2023-04-19T05:20:51;101171.88;;;4.60;100.00
36380;BME280;22411;53.016;18.632;2023-04-19T05:23:17;101175.13;;;4.65;100.00
36380;BME280;22411;53.016;18.632;2023-04-19T05:25:43;101180.97;;;4.69;100.00
36380;BME280;22411;53.016;18.632;2023-04-19T05:28:09;101182.75;;;4.67;100.00
36380;BME280;22411;53.016;18.632;2023-04-19T05:30:37;101186.97;;;4.69;100.00
36380;BME280;22411;53.016;18.632;2023-04-19T05:33:12;101175.91;;;4.67;100.00
36380;BME280;22411;53.016;18.632;2023-04-19T05:35:38;101174.97;;;4.70;100.00
36380;BME280;22411;53.016;18.632;2023-04-19T05:38:04;101151.22;;;4.63;100.00
36380;BME280;22411;53.016;18.632;2023-04-19T05:40:31;101159.72;;;4.65;100.00
36380;BME280;22411;53.016;18.632;2023-04-19T05:42:57;101153.75;;;4.65;100.00
36380;BME280;22411;53.016;18.632;2023-04-19T05:45:25;101155.28;;;4.69;100.00
36380;BME280;22411;53.016;18.632;2023-04-19T05:47:51;101157.84;;;4.70;100.00
36380;BME280;22411;53.016;18.632;2023-04-19T05:50:17;101165.38;;;4.75;100.00
36380;BME280;22411;53.016;18.632;2023-04-19T05:52:45;101157.63;;;4.77;100.00
36380;BME280;22411;53.016;18.632;2023-04-19T05:55:11;101173.03;;;4.77;100.00
36380;BME280;22411;53.016;18.632;2023-04-19T05:57:38;101163.44;;;4.82;100.00
36380;BME280;22411;53.016;18.632;2023-04-19T06:00:04;101165.03;;;4.86;100.00
36380;BME280;22411;53.016;18.632;2023-04-19T06:02:31;101164.81;;;4.92;100.00
36380;BME280;22411;53.016;18.632;2023-04-19T06:04:57;101158.50;;;5.01;100.00
36380;BME280;22411;53.016;18.632;2023-04-19T06:07:31;101142.38;;;4.97;100.00
36380;BME280;22411;53.016;18.632;2023-04-19T06:09:58;101142.63;;;4.89;100.00
36380;BME280;22411;53.016;18.632;2023-04-19T06:12:24;101133.38;;;4.85;100.00
36380;BME280;22411;53.016;18.632;2023-04-19T06:14:51;101132.63;;;4.82;100.00
36380;BME280;22411;53.016;18.632;2023-04-19T06:17:19;101139.44;;;4.83;100.00
36380;BME280;22411;53.016;18.632;2023-04-19T06:19:51;101139.50;;;4.81;100.00
36380;BME280;22411;53.016;18.632;2023-04-19T06:22:18;101145.34;;;4.85;100.00
36380;BME280;22411;53.016;18.632;2023-04-19T06:24:46;101140.38;;;4.80;100.00
36380;BME280;22411;53.016;18.632;2023-04-19T06:27:13;101152.22;;;4.84;100.00
36380;BME280;22411;53.016;18.632;2023-04-19T06:29:40;101142.97;;;4.80;100.00
36380;BME280;22411;53.016;18.632;2023-04-19T06:32:08;101147.06;;;4.84;100.00
36380;BME280;22411;53.016;18.632;2023-04-19T06:34:34;101147.91;;;4.85;100.00
36380;BME280;22411;53.016;18.632;2023-04-19T06:37:01;101141.06;;;4.85;100.00
36380;BME280;22411;53.016;18.632;2023-04-19T06:39:27;101137.63;;;4.85;100.00
36380;BME280;22411;53.016;18.632;2023-04-19T06:41:53;101139.50;;;4.81;100.00
36380;BME280;22411;53.016;18.632;2023-04-19T06:44:20;101139.66;;;4.77;100.00
36380;BME280;22411;53.016;18.632;2023-04-19T06:46:49;101126.81;;;4.77;100.00
36380;BME280;22411;53.016;18.632;2023-04-19T06:49:16;101133.72;;;4.75;100.00
36380;BME280;22411;53.016;18.632;2023-04-19T06:51:42;101122.50;;;4.77;100.00
36380;BME280;22411;53.016;18.632;2023-04-19T06:54:08;101118.06;;;4.82;100.00
36380;BME280;22411;53.016;18.632;2023-04-19T06:56:42;101116.31;;;4.83;100.00
36380;BME280;22411;53.016;18.632;2023-04-19T06:59:13;101110.19;;;4.87;100.00
36380;BME280;22411;53.016;18.632;2023-04-19T07:01:41;101111.75;;;4.91;100.00
36380;BME280;22411;53.016;18.632;2023-04-19T07:04:08;101116.78;;;4.94;100.00
36380;BME280;22411;53.016;18.632;2023-04-19T07:06:35;101105.59;;;4.95;100.00
36380;BME280;22411;53.016;18.632;2023-04-19T07:09:02;101105.41;;;5.01;100.00
36380;BME280;22411;53.016;18.632;2023-04-19T07:11:29;101101.19;;;4.98;100.00
36380;BME280;22411;53.016;18.632;2023-04-19T07:13:56;101100.47;;;4.95;100.00
36380;BME280;22411;53.016;18.632;2023-04-19T07:16:23;101096.00;;;5.00;100.00
36380;BME280;22411;53.016;18.632;2023-04-19T07:18:49;101086.56;;;5.01;100.00
36380;BME280;22411;53.016;18.632;2023-04-19T07:21:15;101088.25;;;5.02;100.00
36380;BME280;22411;53.016;18.632;2023-04-19T07:23:42;101097.34;;;5.10;100.00
36380;BME280;22411;53.016;18.632;2023-04-19T07:26:08;101096.50;;;5.10;100.00
36380;BME280;22411;53.016;18.632;2023-04-19T07:28:34;101088.94;;;5.07;100.00
36380;BME280;22411;53.016;18.632;2023-04-19T07:31:01;101096.63;;;5.07;100.00
36380;BME280;22411;53.016;18.632;2023-04-19T07:33:27;101089.09;;;5.02;100.00
36380;BME280;22411;53.016;18.632;2023-04-19T07:35:54;101083.22;;;4.98;100.00
36380;BME280;22411;53.016;18.632;2023-04-19T07:38:22;101090.16;;;4.96;100.00
36380;BME280;22411;53.016;18.632;2023-04-19T07:40:49;101091.00;;;4.97;100.00
36380;BME280;22411;53.016;18.632;2023-04-19T07:43:16;101085.25;;;4.90;100.00
36380;BME280;22411;53.016;18.632;2023-04-19T07:45:43;101096.38;;;4.89;100.00
36380;BME280;22411;53.016;18.632;2023-04-19T07:48:09;101090.47;;;4.87;100.00
36380;BME280;22411;53.016;18.632;2023-04-19T07:50:36;101087.91;;;4.87;100.00
36380;BME280;22411;53.016;18.632;2023-04-19T07:53:03;101099.09;;;4.85;100.00
36380;BME280;22411;53.016;18.632;2023-04-19T07:55:29;101101.69;;;4.85;100.00
36380;BME280;22411;53.016;18.632;2023-04-19T07:57:56;101095.75;;;4.83;100.00
36380;BME280;22411;53.016;18.632;2023-04-19T08:00:22;101099.22;;;4.82;100.00
36380;BME280;22411;53.016;18.632;2023-04-19T08:02:48;101100.91;;;4.83;100.00
36380;BME280;22411;53.016;18.632;2023-04-19T08:05:15;101103.47;;;4.83;100.00
36380;BME280;22411;53.016;18.632;2023-04-19T08:07:42;101105.94;;;4.86;100.00
36380;BME280;22411;53.016;18.632;2023-04-19T08:10:10;101104.22;;;4.86;100.00
36380;BME280;22411;53.016;18.632;2023-04-19T08:12:37;101110.94;;;4.90;100.00
36380;BME280;22411;53.016;18.632;2023-04-19T08:15:07;101103.88;;;4.95;100.00
36380;BME280;22411;53.016;18.632;2023-04-19T08:17:34;101105.44;;;4.99;100.00
36380;BME280;22411;53.016;18.632;2023-04-19T08:20:00;101099.47;;;4.99;100.00
36380;BME280;22411;53.016;18.632;2023-04-19T08:22:26;101097.50;;;5.06;100.00
36380;BME280;22411;53.016;18.632;2023-04-19T08:24:53;101098.31;;;5.08;100.00
36380;BME280;22411;53.016;18.632;2023-04-19T08:27:20;101098.09;;;5.14;100.00
36380;BME280;22411;53.016;18.632;2023-04-19T08:29:46;101089.38;;;5.18;100.00
36380;BME280;22411;53.016;18.632;2023-04-19T08:32:13;101096.91;;;5.22;100.00
36380;BME280;22411;53.016;18.632;2023-04-19T08:34:39;101091.53;;;5.29;100.00
36380;BME280;22411;53.016;18.632;2023-04-19T08:37:06;101093.97;;;5.32;100.00
36380;BME280;22411;53.016;18.632;2023-04-19T08:39:32;101087.97;;;5.33;100.00
36380;BME280;22411;53.016;18.632;2023-04-19T08:42:09;101086.16;;;5.35;100.00
36380;BME280;22411;53.016;18.632;2023-04-19T08:44:36;101087.84;;;5.36;100.00
36380;BME280;22411;53.016;18.632;2023-04-19T08:47:07;101093.72;;;5.39;100.00
36380;BME280;22411;53.016;18.632;2023-04-19T08:49:34;101091.00;;;5.42;100.00
36380;BME280;22411;53.016;18.632;2023-04-19T08:52:05;101092.56;;;5.46;100.00
36380;BME280;22411;53.016;18.632;2023-04-19T08:54:34;101083.78;;;5.52;100.00
36380;BME280;22411;53.016;18.632;2023-04-19T08:57:01;101087.09;;;5.56;100.00
36380;BME280;22411;53.016;18.632;2023-04-19T08:59:28;101086.13;;;5.58;100.00
36380;BME280;22411;53.016;18.632;2023-04-19T09:02:00;101083.38;;;5.63;100.00
36380;BME280;22411;53.016;18.632;2023-04-19T09:04:26;101080.63;;;5.67;100.00
36380;BME280;22411;53.016;18.632;2023-04-19T09:06:54;101082.13;;;5.73;100.00
36380;BME280;22411;53.016;18.632;2023-04-19T09:09:25;101080.22;;;5.78;100.00
36380;BME280;22411;53.016;18.632;2023-04-19T09:11:51;101075.91;;;5.78;100.00
36380;BME280;22411;53.016;18.632;2023-04-19T09:14:19;101080.88;;;5.83;100.00
36380;BME280;22411;53.016;18.632;2023-04-19T09:16:45;101077.41;;;5.84;100.00
36380;BME280;22411;53.016;18.632;2023-04-19T09:19:11;101078.88;;;5.91;100.00
36380;BME280;22411;53.016;18.632;2023-04-19T09:21:38;101074.56;;;5.90;100.00
36380;BME280;22411;53.016;18.632;2023-04-19T09:24:05;101070.13;;;5.95;100.00
36380;BME280;22411;53.016;18.632;2023-04-19T09:26:32;101072.47;;;6.01;100.00
36380;BME280;22411;53.016;18.632;2023-04-19T09:29:03;101076.38;;;6.10;100.00
36380;BME280;22411;53.016;18.632;2023-04-19T09:31:34;101077.03;;;6.15;100.00
36380;BME280;22411;53.016;18.632;2023-04-19T09:34:15;101075.91;;;6.22;100.00
36380;BME280;22411;53.016;18.632;2023-04-19T09:36:42;101070.59;;;6.25;100.00
36380;BME280;22411;53.016;18.632;2023-04-19T09:39:08;101075.47;;;6.33;100.00
36380;BME280;22411;53.016;18.632;2023-04-19T09:41:52;101078.59;;;6.40;100.00
36380;BME280;22411;53.016;18.632;2023-04-19T09:44:19;101072.34;;;6.45;100.00
36380;BME280;22411;53.016;18.632;2023-04-19T09:46:46;101073.13;;;6.47;100.00
36380;BME280;22411;53.016;18.632;2023-04-19T09:51:47;101072.66;;;6.58;100.00
36380;BME280;22411;53.016;18.632;2023-04-19T09:54:15;101069.81;;;6.64;100.00
36380;BME280;22411;53.016;18.632;2023-04-19T09:56:43;101069.31;;;6.76;100.00
36380;BME280;22411;53.016;18.632;2023-04-19T09:59:10;101065.22;;;6.91;100.00
36380;BME280;22411;53.016;18.632;2023-04-19T10:01:44;101057.41;;;7.12;100.00
36380;BME280;22411;53.016;18.632;2023-04-19T10:04:13;101068.03;;;7.24;100.00
36380;BME280;22411;53.016;18.632;2023-04-19T10:06:48;101065.88;;;7.34;100.00
36380;BME280;22411;53.016;18.632;2023-04-19T10:09:17;101062.00;;;7.43;100.00
36380;BME280;22411;53.016;18.632;2023-04-19T10:11:50;101073.66;;;7.51;100.00
36380;BME280;22411;53.016;18.632;2023-04-19T10:14:24;101064.03;;;7.55;100.00
36380;BME280;22411;53.016;18.632;2023-04-19T10:16:55;101052.81;;;7.56;100.00
36380;BME280;22411;53.016;18.632;2023-04-19T10:19:22;101061.28;;;7.58;100.00
36380;BME280;22411;53.016;18.632;2023-04-19T10:21:49;101057.66;;;7.62;100.00
36380;BME280;22411;53.016;18.632;2023-04-19T10:24:16;101057.28;;;7.70;100.00
36380;BME280;22411;53.016;18.632;2023-04-19T10:27:07;101050.34;;;7.72;100.00
36380;BME280;22411;53.016;18.632;2023-04-19T10:29:55;101054.59;;;7.73;100.00
36380;BME280;22411;53.016;18.632;2023-04-19T10:32:27;101055.19;;;7.78;100.00
36380;BME280;22411;53.016;18.632;2023-04-19T10:34:53;101046.41;;;7.82;100.00
36380;BME280;22411;53.016;18.632;2023-04-19T10:37:24;101050.13;;;7.94;100.00
36380;BME280;22411;53.016;18.632;2023-04-19T10:39:51;101051.66;;;7.98;100.00
36380;BME280;22411;53.016;18.632;2023-04-19T10:42:17;101054.91;;;8.01;100.00
36380;BME280;22411;53.016;18.632;2023-04-19T10:47:54;101057.00;;;8.12;100.00
36380;BME280;22411;53.016;18.632;2023-04-19T10:50:22;101057.03;;;8.10;100.00
36380;BME280;22411;53.016;18.632;2023-04-19T10:52:49;101056.38;;;8.07;100.00
36380;BME280;22411;53.016;18.632;2023-04-19T10:55:17;101066.00;;;8.03;100.00
36380;BME280;22411;53.016;18.632;2023-04-19T10:58:04;101057.44;;;8.03;100.00
36380;BME280;22411;53.016;18.632;2023-04-19T11:00:32;101056.81;;;7.98;100.00
36380;BME280;22411;53.016;18.632;2023-04-19T11:06:19;101061.59;;;8.05;100.00
36380;BME280;22411;53.016;18.632;2023-04-19T11:08:52;101061.47;;;8.08;100.00
36380;BME280;22411;53.016;18.632;2023-04-19T11:11:19;101064.88;;;8.09;100.00
36380;BME280;22411;53.016;18.632;2023-04-19T11:13:55;101059.78;;;8.07;100.00
36380;BME280;22411;53.016;18.632;2023-04-19T11:16:22;101063.13;;;8.09;100.00
36380;BME280;22411;53.016;18.632;2023-04-19T11:18:51;101064.88;;;8.09;100.00
36380;BME280;22411;53.016;18.632;2023-04-19T11:21:17;101058.50;;;8.16;100.00
36380;BME280;22411;53.016;18.632;2023-04-19T11:23:43;101066.94;;;8.20;100.00
36380;BME280;22411;53.016;18.632;2023-04-19T11:26:12;101063.50;;;8.19;100.00
36380;BME280;22411;53.016;18.632;2023-04-19T11:28:39;101064.56;;;8.15;100.00
36380;BME280;22411;53.016;18.632;2023-04-19T11:31:06;101064.56;;;7.98;100.00
36380;BME280;22411;53.016;18.632;2023-04-19T11:33:33;101071.53;;;7.96;100.00
36380;BME280;22411;53.016;18.632;2023-04-19T11:36:00;101067.06;;;7.99;100.00
36380;BME280;22411;53.016;18.632;2023-04-19T11:38:27;101073.59;;;8.06;100.00
36380;BME280;22411;53.016;18.632;2023-04-19T11:41:01;101069.81;;;8.13;100.00
36380;BME280;22411;53.016;18.632;2023-04-19T11:43:36;101079.38;;;8.11;100.00
36380;BME280;22411;53.016;18.632;2023-04-19T11:46:09;101071.63;;;8.11;100.00
36380;BME280;22411;53.016;18.632;2023-04-19T11:48:38;101075.50;;;8.20;100.00
36380;BME280;22411;53.016;18.632;2023-04-19T11:51:05;101071.66;;;8.29;100.00
36380;BME280;22411;53.016;18.632;2023-04-19T11:53:31;101079.22;;;8.32;100.00
36380;BME280;22411;53.016;18.632;2023-04-19T11:56:06;101083.28;;;8.37;100.00
36380;BME280;22411;53.016;18.632;2023-04-19T11:58:46;101083.22;;;8.39;100.00
36380;BME280;22411;53.016;18.632;2023-04-19T12:01:18;101091.56;;;8.44;100.00
36380;BME280;22411;53.016;18.632;2023-04-19T12:03:50;101085.09;;;8.53;100.00
36380;BME280;22411;53.016;18.632;2023-04-19T12:06:21;101083.13;;;8.58;100.00
36380;BME280;22411;53.016;18.632;2023-04-19T12:08:49;101082.44;;;8.54;100.00
36380;BME280;22411;53.016;18.632;2023-04-19T12:11:18;101086.00;;;8.52;100.00
36380;BME280;22411;53.016;18.632;2023-04-19T12:13:48;101084.97;;;8.38;100.00
36380;BME280;22411;53.016;18.632;2023-04-19T12:16:26;101084.69;;;8.26;100.00
36380;BME280;22411;53.016;18.632;2023-04-19T12:18:52;101085.97;;;8.00;100.00
36380;BME280;22411;53.016;18.632;2023-04-19T12:23:59;101084.44;;;7.96;100.00
36380;BME280;22411;53.016;18.632;2023-04-19T12:26:27;101088.63;;;7.98;100.00
36380;BME280;22411;53.016;18.632;2023-04-19T12:28:55;101079.84;;;8.02;100.00
36380;BME280;22411;53.016;18.632;2023-04-19T12:31:21;101084.91;;;8.04;100.00
36380;BME280;22411;53.016;18.632;2023-04-19T12:33:48;101092.56;;;8.05;100.00
36380;BME280;22411;53.016;18.632;2023-04-19T12:36:14;101089.94;;;8.07;100.00
36380;BME280;22411;53.016;18.632;2023-04-19T12:38:41;101086.88;;;8.16;100.00
36380;BME280;22411;53.016;18.632;2023-04-19T12:41:07;101089.25;;;8.21;100.00
36380;BME280;22411;53.016;18.632;2023-04-19T12:43:34;101081.66;;;8.18;100.00
36380;BME280;22411;53.016;18.632;2023-04-19T12:46:00;101084.00;;;8.22;100.00
36380;BME280;22411;53.016;18.632;2023-04-19T12:48:28;101076.94;;;8.26;100.00
36380;BME280;22411;53.016;18.632;2023-04-19T12:50:54;101074.97;;;8.31;100.00
36380;BME280;22411;53.016;18.632;2023-04-19T12:53:20;101075.91;;;8.47;100.00